Time;durP1;ratioP1;P1;durP2;ratioP2;P2;SDS_P1;SDS_P2;PMS_P1;PMS_P2;Temp;Humidity;BMP_temperature;BMP_pressure;BME280_temperature;BME280_humidity;BME280_pressure;Samples;Min_cycle;Max_cycle;Signal;HPM_P1;HPM_P2
2022/03/24 00:00:52;;;;;;;;;;;19.90;94.60;;;;;;5108882;28;19931;-59
2022/03/24 00:03:20;;;;;;;;;;;19.90;94.60;;;;;;5108972;28;19934;-60
2022/03/24 00:05:53;;;;;;;;;;;19.90;94.60;;;;;;5106912;28;19923;-59
2022/03/24 00:08:20;;;;;;;;;;;19.90;94.60;;;;;;5104687;28;19930;-59
2022/03/24 00:10:47;;;;;;;;;;;19.90;94.60;;;;;;5106824;28;19928;-60
2022/03/24 00:13:15;;;;;;;;;;;19.90;94.70;;;;;;5089711;28;19931;-60
2022/03/24 00:15:42;;;;;;;;;;;19.90;94.60;;;;;;5101627;28;20308;-59
2022/03/24 00:18:10;;;;;;;;;;;19.90;94.70;;;;;;5107002;28;19935;-55
2022/03/24 00:20:37;;;;;;;;;;;19.90;94.60;;;;;;5102333;28;19923;-56
2022/03/24 00:23:04;;;;;;;;;;;19.90;94.60;;;;;;5107644;28;19923;-58
2022/03/24 00:25:31;;;;;;;;;;;19.90;94.70;;;;;;5070126;28;19928;-59
2022/03/24 00:27:59;;;;;;;;;;;19.90;94.70;;;;;;5097930;28;20098;-59
2022/03/24 00:30:26;;;;;;;;;;;19.80;94.70;;;;;;5107699;28;19924;-60
2022/03/24 00:32:53;;;;;;;;;;;19.90;94.80;;;;;;5101961;28;19920;-59
2022/03/24 00:35:24;;;;;;;;;;;19.90;94.80;;;;;;5105882;28;19931;-59
2022/03/24 00:37:52;;;;;;;;;;;19.80;94.80;;;;;;5105817;28;19950;-61
2022/03/24 00:40:19;;;;;;;;;;;19.80;94.80;;;;;;5101057;28;19931;-60
2022/03/24 00:42:46;;;;;;;;;;;19.80;94.80;;;;;;5100280;28;19923;-59
2022/03/24 00:45:13;;;;;;;;;;;19.80;94.80;;;;;;5097836;28;19951;-58
2022/03/24 00:47:41;;;;;;;;;;;19.80;94.70;;;;;;5100106;28;19935;-57
2022/03/24 00:50:09;;;;;;;;;;;19.80;94.90;;;;;;5102946;28;19931;-57
2022/03/24 00:52:41;;;;;;;;;;;19.80;94.90;;;;;;5098491;28;19923;-60
2022/03/24 00:55:13;;;;;;;;;;;19.80;94.90;;;;;;5106389;28;19935;-57
2022/03/24 00:57:42;;;;;;;;;;;19.80;95.00;;;;;;5102247;28;20660;-59
2022/03/24 01:00:11;;;;;;;;;;;19.80;95.00;;;;;;5099001;28;19920;-57
2022/03/24 01:02:40;;;;;;;;;;;19.80;95.00;;;;;;5098340;28;19923;-55
2022/03/24 01:05:07;;;;;;;;;;;19.80;94.90;;;;;;5105722;28;19932;-57
2022/03/24 01:07:35;;;;;;;;;;;19.80;95.00;;;;;;5096794;28;19931;-59
2022/03/24 01:10:03;;;;;;;;;;;19.80;94.80;;;;;;5102618;28;19923;-60
2022/03/24 01:12:30;;;;;;;;;;;19.80;94.80;;;;;;5095115;28;19942;-58
2022/03/24 01:14:58;;;;;;;;;;;19.80;94.80;;;;;;5083134;28;19947;-58
2022/03/24 01:17:26;;;;;;;;;;;19.80;94.80;;;;;;5060314;28;19924;-58
2022/03/24 01:19:54;;;;;;;;;;;19.70;94.80;;;;;;5105569;28;19935;-58
2022/03/24 01:22:21;;;;;;;;;;;19.70;94.80;;;;;;5086848;28;19946;-56
2022/03/24 01:24:49;;;;;;;;;;;19.70;94.80;;;;;;5088489;28;20506;-60
2022/03/24 01:27:16;;;;;;;;;;;19.70;94.80;;;;;;5072780;28;19954;-59
2022/03/24 01:29:44;;;;;;;;;;;19.70;94.70;;;;;;5098266;28;20307;-57
2022/03/24 01:32:12;;;;;;;;;;;19.70;94.70;;;;;;5102485;28;19919;-60
2022/03/24 01:34:39;;;;;;;;;;;19.70;94.70;;;;;;5080549;28;19924;-57
2022/03/24 01:37:06;;;;;;;;;;;19.70;94.90;;;;;;5087726;28;19931;-55
2022/03/24 01:39:35;;;;;;;;;;;19.70;94.90;;;;;;5079934;28;19920;-59
2022/03/24 01:42:02;;;;;;;;;;;19.70;94.90;;;;;;5067070;28;19924;-59
2022/03/24 01:44:30;;;;;;;;;;;19.70;94.90;;;;;;5101626;28;20311;-59
2022/03/24 01:47:03;;;;;;;;;;;19.70;95.00;;;;;;5083921;28;20378;-58
2022/03/24 01:49:33;;;;;;;;;;;19.70;94.90;;;;;;5070581;28;19924;-60
2022/03/24 01:52:00;;;;;;;;;;;19.70;95.00;;;;;;5080523;28;19923;-60
2022/03/24 01:54:30;;;;;;;;;;;19.70;95.10;;;;;;5105552;28;19939;-59
2022/03/24 01:56:58;;;;;;;;;;;19.70;95.10;;;;;;5077275;28;19931;-60
2022/03/24 01:59:25;;;;;;;;;;;19.70;95.20;;;;;;5082660;28;19923;-59
2022/03/24 02:01:53;;;;;;;;;;;19.60;95.20;;;;;;5094343;28;19935;-60
2022/03/24 02:04:21;;;;;;;;;;;19.70;95.30;;;;;;5103339;28;19927;-58
2022/03/24 02:06:48;;;;;;;;;;;19.70;95.30;;;;;;5098688;28;19923;-59
2022/03/24 02:09:16;;;;;;;;;;;19.60;95.30;;;;;;5089328;28;19938;-60
2022/03/24 02:11:43;;;;;;;;;;;19.60;95.50;;;;;;5078791;28;19924;-58
2022/03/24 02:14:11;;;;;;;;;;;19.60;95.50;;;;;;5099538;28;19930;-59
2022/03/24 02:16:39;;;;;;;;;;;19.60;95.50;;;;;;5087654;28;19927;-60
2022/03/24 02:19:13;;;;;;;;;;;19.60;95.50;;;;;;5089566;28;19924;-59
2022/03/24 02:21:41;;;;;;;;;;;19.60;95.50;;;;;;5093995;28;19947;-60
2022/03/24 02:24:09;;;;;;;;;;;19.60;95.50;;;;;;5108572;28;20407;-57
2022/03/24 02:26:37;;;;;;;;;;;19.60;95.60;;;;;;5104246;28;20284;-61
2022/03/24 02:29:07;;;;;;;;;;;19.60;95.50;;;;;;5091058;28;20344;-60
2022/03/24 02:31:37;;;;;;;;;;;19.60;95.60;;;;;;5082573;28;19998;-59
2022/03/24 02:36:51;;;;;;;;;;;19.60;95.60;;;;;;5091180;28;19935;-58
2022/03/24 02:39:19;;;;;;;;;;;19.60;95.60;;;;;;5068281;28;19935;-58
2022/03/24 02:41:47;;;;;;;;;;;19.60;95.60;;;;;;5091902;28;20319;-59
2022/03/24 02:44:14;;;;;;;;;;;19.60;95.60;;;;;;5088472;28;19926;-58
2022/03/24 02:46:46;;;;;;;;;;;19.60;95.50;;;;;;5087704;28;19939;-58
2022/03/24 02:49:17;;;;;;;;;;;19.60;95.60;;;;;;5106425;28;19924;-57
2022/03/24 02:51:44;;;;;;;;;;;19.60;95.60;;;;;;5090785;28;19920;-59
2022/03/24 02:54:12;;;;;;;;;;;19.60;95.60;;;;;;5097747;28;20352;-60
2022/03/24 02:56:42;;;;;;;;;;;19.60;95.60;;;;;;5088285;28;20509;-61
2022/03/24 02:59:10;;;;;;;;;;;19.60;95.60;;;;;;5096337;28;20326;-62
2022/03/24 03:01:41;;;;;;;;;;;19.60;95.60;;;;;;5098658;28;19924;-60
2022/03/24 03:04:09;;;;;;;;;;;19.60;95.70;;;;;;5097379;28;19931;-56
2022/03/24 03:06:36;;;;;;;;;;;19.60;95.60;;;;;;5086401;28;19931;-55
2022/03/24 03:09:04;;;;;;;;;;;19.60;95.60;;;;;;5086506;28;19931;-56
2022/03/24 03:11:31;;;;;;;;;;;19.50;95.60;;;;;;5090632;28;19931;-57
2022/03/24 03:13:59;;;;;;;;;;;19.50;95.70;;;;;;5102615;28;20531;-58
2022/03/24 03:16:26;;;;;;;;;;;19.60;95.60;;;;;;5096500;28;20300;-58
2022/03/24 03:18:55;;;;;;;;;;;19.50;95.60;;;;;;5081603;28;19920;-62
2022/03/24 03:21:22;;;;;;;;;;;19.50;95.60;;;;;;5089431;28;19924;-59
2022/03/24 03:23:49;;;;;;;;;;;19.50;95.70;;;;;;5093684;28;19935;-61
2022/03/24 03:26:17;;;;;;;;;;;19.50;95.70;;;;;;5074466;28;19945;-59
2022/03/24 03:28:44;;;;;;;;;;;19.50;95.70;;;;;;5083873;28;19927;-59
2022/03/24 03:31:11;;;;;;;;;;;19.50;95.70;;;;;;5089754;28;19920;-58
2022/03/24 03:33:39;;;;;;;;;;;19.50;95.70;;;;;;5087368;28;19920;-60
2022/03/24 03:36:06;;;;;;;;;;;19.50;95.60;;;;;;5091520;28;19920;-59
2022/03/24 03:38:33;;;;;;;;;;;19.40;95.80;;;;;;5101839;28;20379;-59
2022/03/24 03:41:02;;;;;;;;;;;19.50;95.80;;;;;;5085615;28;19958;-58
2022/03/24 03:43:29;;;;;;;;;;;19.50;95.90;;;;;;5105293;28;19919;-59
2022/03/24 03:45:56;;;;;;;;;;;19.40;95.90;;;;;;5106021;28;19927;-59
2022/03/24 03:48:24;;;;;;;;;;;19.50;95.90;;;;;;5098760;28;19920;-57
2022/03/24 03:50:52;;;;;;;;;;;19.50;95.90;;;;;;5097621;28;19935;-59
2022/03/24 03:53:19;;;;;;;;;;;19.40;95.90;;;;;;5079199;28;19923;-59
2022/03/24 03:55:46;;;;;;;;;;;19.40;95.90;;;;;;5098737;28;19930;-59
2022/03/24 03:58:13;;;;;;;;;;;19.40;95.90;;;;;;5071785;28;19931;-60
2022/03/24 04:00:52;;;;;;;;;;;19.40;95.90;;;;;;5095099;28;19939;-58
2022/03/24 04:03:20;;;;;;;;;;;19.40;95.90;;;;;;5090870;28;19922;-58
2022/03/24 04:05:47;;;;;;;;;;;19.40;96.00;;;;;;5089281;28;20392;-61
2022/03/24 04:08:15;;;;;;;;;;;19.40;95.90;;;;;;5094331;28;19953;-58
2022/03/24 04:10:42;;;;;;;;;;;19.40;95.90;;;;;;5089945;28;20406;-59
2022/03/24 04:13:10;;;;;;;;;;;19.40;95.90;;;;;;5091797;28;20332;-60
2022/03/24 04:15:38;;;;;;;;;;;19.40;95.90;;;;;;5102006;28;19923;-60
2022/03/24 04:18:06;;;;;;;;;;;19.40;96.00;;;;;;5094101;28;19939;-55
2022/03/24 04:20:34;;;;;;;;;;;19.40;96.00;;;;;;5106920;28;19923;-55
2022/03/24 04:23:03;;;;;;;;;;;19.40;95.90;;;;;;5089052;28;19932;-59
2022/03/24 04:25:30;;;;;;;;;;;19.40;95.90;;;;;;5090458;28;20391;-58
2022/03/24 04:28:03;;;;;;;;;;;19.40;95.90;;;;;;5095526;28;20011;-60
2022/03/24 04:30:31;;;;;;;;;;;19.30;95.90;;;;;;5098398;28;19930;-58
2022/03/24 04:32:58;;;;;;;;;;;19.40;96.00;;;;;;5108135;28;20399;-57
2022/03/24 04:35:26;;;;;;;;;;;19.30;96.00;;;;;;5093461;28;19924;-57
2022/03/24 04:37:53;;;;;;;;;;;19.30;96.00;;;;;;5089163;28;19935;-58
2022/03/24 04:40:21;;;;;;;;;;;19.30;96.00;;;;;;5102303;28;19924;-59
2022/03/24 04:42:50;;;;;;;;;;;19.30;96.10;;;;;;5090315;28;19924;-58
2022/03/24 04:45:17;;;;;;;;;;;19.30;96.00;;;;;;5104598;28;19919;-58
2022/03/24 04:47:45;;;;;;;;;;;19.30;96.10;;;;;;5090842;28;19924;-60
2022/03/24 04:50:13;;;;;;;;;;;19.30;96.00;;;;;;5102516;28;19975;-57
2022/03/24 04:52:41;;;;;;;;;;;19.30;96.20;;;;;;5091778;28;19928;-58
2022/03/24 04:55:08;;;;;;;;;;;19.30;96.10;;;;;;5101474;28;19923;-60
2022/03/24 04:57:36;;;;;;;;;;;19.50;95.80;;;;;;5100461;28;19920;-59
2022/03/24 05:00:04;;;;;;;;;;;19.70;95.40;;;;;;5103538;28;19935;-58
2022/03/24 05:02:31;;;;;;;;;;;20.00;95.00;;;;;;5101630;28;19924;-55
2022/03/24 05:04:58;;;;;;;;;;;20.20;94.60;;;;;;5096943;28;19924;-59
2022/03/24 05:07:26;;;;;;;;;;;20.50;94.20;;;;;;5099706;28;20372;-59
2022/03/24 05:09:54;;;;;;;;;;;20.70;93.80;;;;;;5107857;28;19920;-58
2022/03/24 05:12:21;;;;;;;;;;;21.00;93.60;;;;;;5090331;28;19931;-59
2022/03/24 05:14:48;;;;;;;;;;;21.10;93.30;;;;;;5099356;28;19924;-59
2022/03/24 05:17:17;;;;;;;;;;;21.30;93.00;;;;;;5060320;28;19928;-60
2022/03/24 05:19:48;;;;;;;;;;;21.50;92.90;;;;;;5100502;28;19919;-62
2022/03/24 05:22:16;;;;;;;;;;;21.70;92.60;;;;;;5098899;28;19934;-59
2022/03/24 05:24:43;;;;;;;;;;;21.80;92.50;;;;;;5101110;28;19928;-58
2022/03/24 05:27:11;;;;;;;;;;;21.90;92.50;;;;;;5103280;28;19919;-53
2022/03/24 05:29:38;;;;;;;;;;;22.00;92.40;;;;;;5081945;28;20339;-59
2022/03/24 05:32:06;;;;;;;;;;;22.00;92.30;;;;;;5092059;28;20308;-58
2022/03/24 05:34:33;;;;;;;;;;;22.10;92.20;;;;;;5103535;28;19927;-60
2022/03/24 05:37:01;;;;;;;;;;;22.20;92.20;;;;;;5102373;28;19930;-58
2022/03/24 05:39:28;;;;;;;;;;;22.30;92.10;;;;;;5114223;28;19935;-62
2022/03/24 05:41:56;;;;;;;;;;;22.30;92.00;;;;;;5099408;28;19924;-56
2022/03/24 05:44:23;;;;;;;;;;;22.30;92.00;;;;;;5096183;28;19939;-58
2022/03/24 05:46:50;;;;;;;;;;;22.30;92.10;;;;;;5088498;28;20315;-57
2022/03/24 05:49:19;;;;;;;;;;;22.30;92.10;;;;;;5105432;28;19919;-60
2022/03/24 05:51:46;;;;;;;;;;;22.20;92.20;;;;;;5094610;28;19927;-61
2022/03/24 05:54:14;;;;;;;;;;;22.20;92.20;;;;;;5100203;28;20302;-61
2022/03/24 05:56:41;;;;;;;;;;;22.20;92.30;;;;;;5097432;28;19946;-61
2022/03/24 05:59:09;;;;;;;;;;;22.10;92.40;;;;;;5093093;28;19924;-58
2022/03/24 06:01:36;;;;;;;;;;;22.10;92.50;;;;;;5099055;28;19946;-60
2022/03/24 06:04:04;;;;;;;;;;;22.00;92.60;;;;;;5103171;28;20348;-58
2022/03/24 06:06:34;;;;;;;;;;;22.00;92.70;;;;;;5093632;28;19924;-61
2022/03/24 06:09:02;;;;;;;;;;;21.90;92.80;;;;;;5092402;28;19924;-60
2022/03/24 06:11:30;;;;;;;;;;;21.90;93.00;;;;;;5090746;28;19927;-57
2022/03/24 06:13:57;;;;;;;;;;;21.40;84.00;;;;;;5105080;28;20482;-55
2022/03/24 06:16:24;;;;;;;;;;;20.20;76.80;;;;;;5103341;28;20014;-51
2022/03/24 06:18:51;;;;;;;;;;;19.30;77.10;;;;;;5098443;28;19954;-54
2022/03/24 06:21:19;;;;;;;;;;;18.80;80.40;;;;;;5102014;28;19923;-56
2022/03/24 06:23:47;;;;;;;;;;;19.40;86.60;;;;;;5081897;28;19931;-53
2022/03/24 06:26:14;;;;;;;;;;;20.20;87.20;;;;;;5099395;28;19920;-52
2022/03/24 06:28:42;;;;;;;;;;;20.60;86.50;;;;;;5094920;28;19927;-56
2022/03/24 06:31:09;;;;;;;;;;;20.90;86.60;;;;;;5104584;28;20684;-56
2022/03/24 06:33:36;;;;;;;;;;;21.00;86.90;;;;;;5087164;28;19919;-56
2022/03/24 06:36:04;;;;;;;;;;;21.10;87.30;;;;;;5102085;28;19928;-57
2022/03/24 06:38:31;;;;;;;;;;;21.20;87.50;;;;;;5105265;28;20351;-54
2022/03/24 06:40:58;;;;;;;;;;;21.30;88.10;;;;;;5096749;28;19924;-56
2022/03/24 06:43:27;;;;;;;;;;;21.30;88.80;;;;;;5096519;28;19924;-54
2022/03/24 06:45:54;;;;;;;;;;;21.20;90.00;;;;;;5080768;28;20303;-59
2022/03/24 06:48:21;;;;;;;;;;;21.30;90.20;;;;;;5103099;28;19919;-55
2022/03/24 06:50:49;;;;;;;;;;;21.30;90.30;;;;;;5090974;28;19924;-52
2022/03/24 06:53:17;;;;;;;;;;;21.30;90.50;;;;;;5094477;28;19923;-56
2022/03/24 06:55:45;;;;;;;;;;;21.30;90.70;;;;;;5102672;28;19932;-54
2022/03/24 06:58:12;;;;;;;;;;;21.30;91.10;;;;;;5099698;28;19924;-59
2022/03/24 07:00:39;;;;;;;;;;;21.40;91.70;;;;;;5096682;28;19924;-58
2022/03/24 07:03:07;;;;;;;;;;;21.30;91.90;;;;;;5099007;28;19923;-59
2022/03/24 07:05:35;;;;;;;;;;;21.30;92.10;;;;;;5103751;28;19927;-59
2022/03/24 07:08:04;;;;;;;;;;;21.40;92.50;;;;;;5100219;28;19920;-61
2022/03/24 07:10:31;;;;;;;;;;;21.40;93.40;;;;;;5079634;28;20265;-64
2022/03/24 07:12:58;;;;;;;;;;;21.30;93.20;;;;;;5099265;28;19931;-59
2022/03/24 07:15:26;;;;;;;;;;;21.20;91.30;;;;;;5092142;28;19920;-59
2022/03/24 07:17:53;;;;;;;;;;;21.10;90.00;;;;;;5102052;28;19931;-62
2022/03/24 07:20:21;;;;;;;;;;;21.00;87.20;;;;;;5090453;28;19927;-61
2022/03/24 07:22:48;;;;;;;;;;;20.90;84.90;;;;;;5105858;28;19924;-65
2022/03/24 07:25:16;;;;;;;;;;;20.90;83.90;;;;;;5104586;28;19923;-61
2022/03/24 07:27:43;;;;;;;;;;;20.80;82.00;;;;;;5105596;28;19923;-64
2022/03/24 07:30:10;;;;;;;;;;;20.70;80.50;;;;;;5104442;28;20109;-62
2022/03/24 07:32:38;;;;;;;;;;;20.60;79.90;;;;;;5104675;28;20379;-69
2022/03/24 07:35:05;;;;;;;;;;;20.50;80.00;;;;;;5102504;28;19924;-65
2022/03/24 07:37:32;;;;;;;;;;;20.50;80.60;;;;;;5104861;28;19920;-56
2022/03/24 07:40:00;;;;;;;;;;;20.50;80.90;;;;;;5102964;28;19920;-57
2022/03/24 07:42:27;;;;;;;;;;;20.50;81.90;;;;;;5101956;28;20292;-53
2022/03/24 07:44:54;;;;;;;;;;;20.60;82.80;;;;;;5101786;28;20374;-57
2022/03/24 07:47:22;;;;;;;;;;;20.60;83.90;;;;;;5108114;28;19930;-56
2022/03/24 07:49:50;;;;;;;;;;;20.60;84.50;;;;;;5102355;28;19920;-53
2022/03/24 07:52:17;;;;;;;;;;;20.60;84.90;;;;;;5107994;28;20580;-55
2022/03/24 07:54:55;;;;;;;;;;;20.60;86.30;;;;;;5087777;28;20411;-57
2022/03/24 07:57:23;;;;;;;;;;;20.60;87.70;;;;;;5106930;28;19934;-53
2022/03/24 07:59:50;;;;;;;;;;;20.70;89.30;;;;;;5101649;28;20236;-56
2022/03/24 08:02:17;;;;;;;;;;;20.70;90.10;;;;;;5100687;28;20314;-58
2022/03/24 08:04:45;;;;;;;;;;;20.70;90.50;;;;;;5103842;28;20450;-57
2022/03/24 08:07:12;;;;;;;;;;;20.70;90.90;;;;;;5110625;28;19920;-58
2022/03/24 08:09:39;;;;;;;;;;;20.80;91.20;;;;;;5115097;28;19934;-58
2022/03/24 08:12:09;;;;;;;;;;;20.80;91.50;;;;;;5107826;28;19924;-58
2022/03/24 08:14:36;;;;;;;;;;;20.80;91.90;;;;;;5106862;28;19987;-60
2022/03/24 08:17:04;;;;;;;;;;;20.90;92.30;;;;;;5109568;28;19924;-58
2022/03/24 08:19:31;;;;;;;;;;;20.90;92.50;;;;;;5102869;28;19923;-58
2022/03/24 08:21:58;;;;;;;;;;;20.90;92.90;;;;;;5105755;28;19931;-59
2022/03/24 08:24:25;;;;;;;;;;;20.80;93.30;;;;;;5105190;28;19927;-58
2022/03/24 08:26:52;;;;;;;;;;;20.80;93.70;;;;;;5099997;28;19931;-62
2022/03/24 08:29:19;;;;;;;;;;;20.80;93.80;;;;;;5095814;28;19924;-55
2022/03/24 08:31:48;;;;;;;;;;;20.80;94.10;;;;;;5102555;28;19924;-55
2022/03/24 08:34:16;;;;;;;;;;;20.80;94.00;;;;;;5102052;28;19927;-57
2022/03/24 08:36:43;;;;;;;;;;;20.80;94.00;;;;;;5099798;28;19931;-58
2022/03/24 08:39:10;;;;;;;;;;;20.80;94.10;;;;;;5098010;28;19928;-58
2022/03/24 08:41:38;;;;;;;;;;;20.80;94.20;;;;;;5081486;28;19924;-58
2022/03/24 08:44:05;;;;;;;;;;;20.80;94.30;;;;;;5107082;28;19923;-56
2022/03/24 08:46:32;;;;;;;;;;;20.80;94.50;;;;;;5094881;28;20407;-57
2022/03/24 08:49:00;;;;;;;;;;;20.70;94.60;;;;;;5100988;28;20030;-56
2022/03/24 08:51:27;;;;;;;;;;;20.70;94.90;;;;;;5099755;28;19930;-60
2022/03/24 08:53:54;;;;;;;;;;;20.70;95.30;;;;;;5100624;28;19927;-58
2022/03/24 08:56:22;;;;;;;;;;;20.70;95.60;;;;;;5099316;28;19923;-57
2022/03/24 08:58:50;;;;;;;;;;;20.70;95.80;;;;;;5099401;28;19924;-59
2022/03/24 09:01:19;;;;;;;;;;;20.70;96.00;;;;;;5105820;28;19920;-58
2022/03/24 09:03:49;;;;;;;;;;;20.70;95.90;;;;;;5098532;28;19928;-58
2022/03/24 09:06:18;;;;;;;;;;;20.70;96.00;;;;;;5103546;28;19924;-59
2022/03/24 09:08:45;;;;;;;;;;;20.70;95.90;;;;;;5100242;28;19935;-60
2022/03/24 09:11:13;;;;;;;;;;;20.70;96.30;;;;;;5105375;28;20560;-55
2022/03/24 09:13:40;;;;;;;;;;;20.70;96.70;;;;;;5102162;28;19923;-57
2022/03/24 09:16:07;;;;;;;;;;;20.70;97.00;;;;;;5097714;28;19939;-59
2022/03/24 09:18:35;;;;;;;;;;;20.70;97.20;;;;;;5088252;28;20343;-60
2022/03/24 09:21:03;;;;;;;;;;;20.70;97.20;;;;;;5105857;28;19931;-56
2022/03/24 09:23:30;;;;;;;;;;;20.70;97.60;;;;;;5094208;28;19999;-59
2022/03/24 09:25:57;;;;;;;;;;;20.70;97.50;;;;;;5105296;28;19935;-54
2022/03/24 09:28:44;;;;;;;;;;;20.70;97.30;;;;;;5101608;28;19934;-56
2022/03/24 09:31:11;;;;;;;;;;;20.70;97.20;;;;;;5109903;28;19923;-59
2022/03/24 09:33:39;;;;;;;;;;;20.80;97.20;;;;;;5099326;28;19919;-55
2022/03/24 09:36:07;;;;;;;;;;;20.70;97.40;;;;;;5087807;28;19928;-57
2022/03/24 09:38:34;;;;;;;;;;;20.70;97.60;;;;;;5099835;28;20391;-59
2022/03/24 09:41:02;;;;;;;;;;;20.70;97.60;;;;;;5106291;28;20362;-56
2022/03/24 09:43:30;;;;;;;;;;;20.70;97.60;;;;;;5104826;28;20311;-56
2022/03/24 09:45:57;;;;;;;;;;;20.70;97.60;;;;;;5104974;28;19931;-58
2022/03/24 09:48:24;;;;;;;;;;;20.60;97.60;;;;;;5095056;28;19931;-56
2022/03/24 09:50:52;;;;;;;;;;;20.60;97.40;;;;;;5108253;28;20324;-55
2022/03/24 09:53:20;;;;;;;;;;;20.60;97.80;;;;;;5096619;28;19935;-54
2022/03/24 09:55:48;;;;;;;;;;;20.60;97.50;;;;;;5092242;28;19931;-53
2022/03/24 09:58:15;;;;;;;;;;;20.60;97.40;;;;;;5089760;28;19920;-57
2022/03/24 10:00:42;;;;;;;;;;;20.60;97.80;;;;;;5081427;28;19927;-59
2022/03/24 10:03:15;;;;;;;;;;;20.70;97.70;;;;;;5096798;28;19923;-56
2022/03/24 10:06:06;;;;;;;;;;;20.70;97.80;;;;;;5098441;28;20388;-58
2022/03/24 10:08:35;;;;;;;;;;;20.60;97.70;;;;;;5091246;28;20413;-59
2022/03/24 10:11:06;;;;;;;;;;;20.60;97.70;;;;;;5087543;28;19923;-60
2022/03/24 10:13:44;;;;;;;;;;;20.50;97.00;;;;;;5093495;28;19923;-58
2022/03/24 10:16:13;;;;;;;;;;;20.50;96.40;;;;;;5101593;28;19919;-58
2022/03/24 10:18:57;;;;;;;;;;;20.50;96.20;;;;;;5095706;28;19935;-54
2022/03/24 10:21:27;;;;;;;;;;;20.50;96.00;;;;;;5086454;28;19924;-60
2022/03/24 10:23:57;;;;;;;;;;;20.50;95.90;;;;;;5071015;28;19924;-58
2022/03/24 10:26:44;;;;;;;;;;;20.50;95.90;;;;;;5099887;28;20364;-58
2022/03/24 10:29:13;;;;;;;;;;;20.50;95.80;;;;;;5074362;28;19919;-59
2022/03/24 10:31:43;;;;;;;;;;;20.50;95.70;;;;;;5086692;28;19928;-60
2022/03/24 10:34:11;;;;;;;;;;;20.50;95.70;;;;;;5089410;28;19924;-59
2022/03/24 10:36:41;;;;;;;;;;;20.50;95.60;;;;;;5087535;28;19927;-57
2022/03/24 10:39:09;;;;;;;;;;;20.50;95.50;;;;;;5095129;28;20423;-58
2022/03/24 10:41:37;;;;;;;;;;;20.50;95.50;;;;;;5096743;28;19954;-59
2022/03/24 10:44:04;;;;;;;;;;;20.50;95.40;;;;;;5089697;28;19924;-59
2022/03/24 10:46:33;;;;;;;;;;;20.50;95.30;;;;;;5088214;28;20733;-58
2022/03/24 10:49:15;;;;;;;;;;;20.50;95.30;;;;;;5093249;28;19920;-60
2022/03/24 10:51:44;;;;;;;;;;;20.50;95.10;;;;;;5081588;28;19924;-58
2022/03/24 10:54:38;;;;;;;;;;;20.50;95.10;;;;;;5086814;28;19927;-59
2022/03/24 10:57:12;;;;;;;;;;;20.40;95.10;;;;;;5098787;28;19930;-59
2022/03/24 10:59:45;;;;;;;;;;;20.40;95.10;;;;;;5077346;28;19919;-60
2022/03/24 11:02:14;;;;;;;;;;;20.40;95.00;;;;;;5087288;28;19924;-58
2022/03/24 11:04:43;;;;;;;;;;;20.40;95.00;;;;;;5092696;28;19923;-59
2022/03/24 11:07:10;;;;;;;;;;;20.40;95.00;;;;;;5086572;28;19924;-59
2022/03/24 11:09:37;;;;;;;;;;;20.40;94.90;;;;;;5087465;28;19928;-59
2022/03/24 11:12:27;;;;;;;;;;;20.40;94.90;;;;;;5090801;28;19935;-58
2022/03/24 11:14:56;;;;;;;;;;;20.40;94.90;;;;;;5093677;28;20027;-60
2022/03/24 11:17:24;;;;;;;;;;;20.40;94.80;;;;;;5093507;28;19994;-61
2022/03/24 11:20:04;;;;;;;;;;;20.40;94.80;;;;;;5097617;28;20348;-59
2022/03/24 11:22:49;;;;;;;;;;;20.40;94.80;;;;;;5090773;28;19924;-59
2022/03/24 11:25:20;;;;;;;;;;;20.40;94.70;;;;;;5088090;28;20406;-60
2022/03/24 11:27:48;;;;;;;;;;;20.40;94.70;;;;;;5100853;28;19928;-61
2022/03/24 11:30:16;;;;;;;;;;;20.40;94.60;;;;;;5072450;28;19927;-62
2022/03/24 11:32:44;;;;;;;;;;;20.40;94.60;;;;;;5090674;28;19923;-59
2022/03/24 11:35:11;;;;;;;;;;;20.30;94.60;;;;;;5091025;28;19924;-58
2022/03/24 11:37:39;;;;;;;;;;;20.30;94.60;;;;;;5088637;28;19935;-59
2022/03/24 11:40:13;;;;;;;;;;;20.30;94.60;;;;;;5096787;28;19919;-60
2022/03/24 11:43:00;;;;;;;;;;;20.30;94.60;;;;;;5089814;28;20389;-57
2022/03/24 11:45:28;;;;;;;;;;;20.30;94.50;;;;;;5103102;28;20319;-60
2022/03/24 11:48:01;;;;;;;;;;;20.30;94.50;;;;;;5098112;28;20379;-59
2022/03/24 11:50:47;;;;;;;;;;;20.20;94.50;;;;;;5098672;28;20377;-58
2022/03/24 11:53:18;;;;;;;;;;;20.20;94.50;;;;;;5092195;28;19927;-62
2022/03/24 11:56:07;;;;;;;;;;;20.20;94.40;;;;;;5073939;28;20486;-61
2022/03/24 11:58:57;;;;;;;;;;;20.20;94.40;;;;;;5096550;28;19931;-60
2022/03/24 12:01:26;;;;;;;;;;;20.20;94.40;;;;;;5089659;28;19923;-61
2022/03/24 12:03:54;;;;;;;;;;;20.20;94.40;;;;;;5094415;28;20399;-58
2022/03/24 12:06:43;;;;;;;;;;;20.20;94.30;;;;;;5090473;28;19924;-58
2022/03/24 12:09:11;;;;;;;;;;;20.20;94.30;;;;;;5078966;28;19940;-59
2022/03/24 12:11:41;;;;;;;;;;;20.20;94.20;;;;;;5095174;28;19923;-56
2022/03/24 12:14:11;;;;;;;;;;;20.20;94.20;;;;;;5093273;28;19927;-60
2022/03/24 12:16:53;;;;;;;;;;;20.20;94.20;;;;;;5096704;28;19972;-58
2022/03/24 12:19:37;;;;;;;;;;;20.20;94.10;;;;;;5095095;28;20027;-60
2022/03/24 12:22:22;;;;;;;;;;;20.20;94.10;;;;;;5097714;28;19923;-61
2022/03/24 12:24:50;;;;;;;;;;;20.20;94.00;;;;;;5095413;28;19924;-60
2022/03/24 12:27:17;;;;;;;;;;;20.20;94.00;;;;;;5090514;28;19947;-57
2022/03/24 12:30:07;;;;;;;;;;;20.20;94.00;;;;;;5054957;28;19995;-56
2022/03/24 12:32:34;;;;;;;;;;;20.20;94.00;;;;;;5089950;28;19930;-58
2022/03/24 12:35:03;;;;;;;;;;;20.20;93.90;;;;;;5078412;28;19923;-60
2022/03/24 12:37:30;;;;;;;;;;;20.20;93.80;;;;;;5088936;28;19924;-62
2022/03/24 12:40:04;;;;;;;;;;;20.20;93.80;;;;;;5090367;28;19928;-59
2022/03/24 12:42:39;;;;;;;;;;;20.20;93.70;;;;;;5089316;28;19924;-60
2022/03/24 12:45:07;;;;;;;;;;;20.10;93.70;;;;;;5101063;28;19920;-56
2022/03/24 12:47:38;;;;;;;;;;;20.20;93.60;;;;;;5100497;28;20304;-59
2022/03/24 12:50:17;;;;;;;;;;;20.10;93.60;;;;;;5089088;28;19947;-57
2022/03/24 12:52:54;;;;;;;;;;;20.10;93.60;;;;;;5088662;28;19954;-59
2022/03/24 12:55:23;;;;;;;;;;;20.10;93.50;;;;;;5101380;28;19924;-57
2022/03/24 12:57:58;;;;;;;;;;;20.10;93.40;;;;;;5093344;28;19931;-58
2022/03/24 13:00:27;;;;;;;;;;;20.20;93.40;;;;;;5099260;28;19923;-59
2022/03/24 13:02:54;;;;;;;;;;;20.20;93.20;;;;;;5089553;28;19924;-61
2022/03/24 13:05:24;;;;;;;;;;;20.20;93.20;;;;;;5089743;28;20379;-63
2022/03/24 13:07:52;;;;;;;;;;;20.10;93.10;;;;;;5091682;28;20300;-60
2022/03/24 13:10:26;;;;;;;;;;;20.20;92.80;;;;;;5106582;28;19923;-60
2022/03/24 13:12:54;;;;;;;;;;;20.20;92.70;;;;;;5089575;28;20349;-55
2022/03/24 13:15:23;;;;;;;;;;;20.20;92.40;;;;;;5102955;28;19951;-61
2022/03/24 13:17:55;;;;;;;;;;;20.20;92.40;;;;;;5087005;28;19924;-59
2022/03/24 13:20:23;;;;;;;;;;;20.20;92.10;;;;;;5099333;28;19923;-60
2022/03/24 13:22:50;;;;;;;;;;;20.20;92.20;;;;;;5087505;28;20273;-58
2022/03/24 13:25:22;;;;;;;;;;;20.20;91.70;;;;;;5089412;28;19924;-61
2022/03/24 13:27:51;;;;;;;;;;;20.20;91.80;;;;;;5090299;28;19931;-60
2022/03/24 13:30:20;;;;;;;;;;;20.20;91.90;;;;;;5093423;28;19928;-59
2022/03/24 13:32:57;;;;;;;;;;;20.30;92.00;;;;;;5093113;28;19928;-60
2022/03/24 13:35:25;;;;;;;;;;;20.30;91.70;;;;;;5087993;28;19931;-60
2022/03/24 13:37:54;;;;;;;;;;;20.30;91.80;;;;;;5089020;28;19940;-59
2022/03/24 13:40:28;;;;;;;;;;;20.20;91.30;;;;;;5100205;28;19931;-56
2022/03/24 13:42:56;;;;;;;;;;;20.30;91.70;;;;;;5087650;28;19924;-58
2022/03/24 13:45:24;;;;;;;;;;;20.30;91.60;;;;;;5095981;28;19924;-59
2022/03/24 13:47:52;;;;;;;;;;;20.30;91.10;;;;;;5087684;28;20246;-59
2022/03/24 13:50:20;;;;;;;;;;;20.30;91.20;;;;;;5096150;28;19931;-60
2022/03/24 13:52:51;;;;;;;;;;;20.40;91.10;;;;;;5089910;28;19928;-60
2022/03/24 13:55:22;;;;;;;;;;;20.40;90.90;;;;;;5096802;28;20038;-58
2022/03/24 13:57:50;;;;;;;;;;;20.40;91.10;;;;;;5091950;28;19924;-57
2022/03/24 14:00:24;;;;;;;;;;;20.40;91.10;;;;;;5088787;28;19930;-57
2022/03/24 14:03:02;;;;;;;;;;;20.50;91.10;;;;;;5098777;28;19919;-59
2022/03/24 14:05:43;;;;;;;;;;;20.50;91.00;;;;;;5087958;28;19931;-57
2022/03/24 14:08:14;;;;;;;;;;;20.50;91.00;;;;;;5088607;28;19924;-56
2022/03/24 14:10:42;;;;;;;;;;;20.50;90.80;;;;;;5089650;28;19920;-59
2022/03/24 14:13:14;;;;;;;;;;;20.60;90.60;;;;;;5087751;28;19924;-58
2022/03/24 14:15:42;;;;;;;;;;;20.60;90.60;;;;;;5100471;28;19924;-54
2022/03/24 14:18:19;;;;;;;;;;;20.60;90.50;;;;;;5087895;28;19920;-58
2022/03/24 14:20:48;;;;;;;;;;;20.60;90.30;;;;;;5098069;28;19926;-58
2022/03/24 14:23:29;;;;;;;;;;;20.60;90.10;;;;;;5091801;28;20305;-60
2022/03/24 14:26:00;;;;;;;;;;;20.70;89.90;;;;;;5087297;28;19920;-60
2022/03/24 14:28:35;;;;;;;;;;;20.70;90.00;;;;;;5069059;28;19920;-62
2022/03/24 14:31:05;;;;;;;;;;;20.80;90.10;;;;;;5087034;28;19924;-60